createdAt,value
2019-05-10T00:00:10.455Z,98822.28
2019-05-10T00:02:57.563Z,98819.33
2019-05-10T00:05:44.931Z,98820.03
2019-05-10T00:08:32.459Z,98811.14
2019-05-10T00:11:33.426Z,98816.38
2019-05-10T00:14:28.910Z,98813.04
2019-05-10T00:17:02.556Z,98818.08
2019-05-10T00:19:31.758Z,98828.98
2019-05-10T00:22:00.931Z,98823.35
2019-05-10T00:24:30.102Z,98831.23
2019-05-10T00:26:59.340Z,98833.50
2019-05-10T00:29:28.545Z,98841.15
2019-05-10T00:31:57.709Z,98836.58
2019-05-10T00:34:26.859Z,98844.63
2019-05-10T00:36:56.027Z,98845.37
2019-05-10T00:39:25.134Z,98841.07
2019-05-10T00:41:54.268Z,98847.48
2019-05-10T00:44:23.493Z,98845.36
2019-05-10T00:46:52.606Z,98839.55
2019-05-10T00:49:21.732Z,98842.84
2019-05-10T00:51:50.890Z,98842.53
2019-05-10T00:54:20.022Z,98841.07
2019-05-10T00:56:49.244Z,98842.30
2019-05-10T00:59:18.820Z,98839.55
2019-05-10T01:01:48.057Z,98841.90
2019-05-10T01:04:17.200Z,98843.95
2019-05-10T01:06:46.421Z,98859.42
2019-05-10T01:09:15.660Z,98853.31
2019-05-10T01:11:44.886Z,98855.99
2019-05-10T01:14:14.106Z,98863.79
2019-05-10T01:16:43.293Z,98867.53
2019-05-10T01:19:12.433Z,98863.87
2019-05-10T01:21:41.646Z,98864.11
2019-05-10T01:24:11.599Z,98866.66
2019-05-10T01:26:40.763Z,98866.08
2019-05-10T01:29:09.895Z,98871.36
2019-05-10T01:31:39.148Z,98879.62
2019-05-10T01:34:08.275Z,98885.02
2019-05-10T01:36:37.393Z,98887.29
2019-05-10T01:39:07.511Z,98889.89
2019-05-10T01:41:36.701Z,98891.58
2019-05-10T01:44:05.892Z,98880.01
2019-05-10T01:46:35.213Z,98892.48
2019-05-10T01:49:04.347Z,98885.76
2019-05-10T01:51:33.681Z,98886.59
2019-05-10T01:54:02.901Z,98882.96
2019-05-10T01:56:31.989Z,98888.63
2019-05-10T01:59:01.235Z,98881.93
2019-05-10T02:01:30.388Z,98887.48
2019-05-10T02:03:59.528Z,98888.42
2019-05-10T02:06:28.688Z,98885.75
2019-05-10T02:08:58.150Z,98891.41
2019-05-10T02:11:27.290Z,98896.22
2019-05-10T02:13:56.424Z,98898.73
2019-05-10T02:16:25.786Z,98892.55
2019-05-10T02:18:55.033Z,98904.50
2019-05-10T02:21:24.187Z,98904.38
2019-05-10T02:23:53.367Z,98900.48
2019-05-10T02:26:22.483Z,98907.02
2019-05-10T02:28:51.703Z,98908.98
2019-05-10T02:31:21.837Z,98909.14
2019-05-10T02:33:51.549Z,98914.80
2019-05-10T02:36:20.682Z,98921.47
2019-05-10T02:38:50.022Z,98917.38
2019-05-10T02:41:19.134Z,98919.64
2019-05-10T02:43:48.328Z,98920.53
2019-05-10T02:46:17.584Z,98911.94
2019-05-10T02:48:46.728Z,98915.16
2019-05-10T02:51:15.845Z,98918.08
2019-05-10T02:53:44.992Z,98921.38
2019-05-10T02:56:29.592Z,98923.36
2019-05-10T02:58:46.875Z,98917.20
2019-05-10T03:01:17.900Z,98920.83
2019-05-10T03:03:50.348Z,98923.42
2019-05-10T03:06:20.925Z,98935.55
2019-05-10T03:08:51.547Z,98930.68
2019-05-10T03:11:21.201Z,98929.30
2019-05-10T03:13:51.945Z,98930.83
2019-05-10T03:16:22.552Z,98934.11
2019-05-10T03:18:53.277Z,98929.30
2019-05-10T03:21:24.411Z,98928.41
2019-05-10T03:23:53.790Z,98935.94
2019-05-10T03:26:22.934Z,98936.41
2019-05-10T03:28:52.127Z,98932.72
2019-05-10T03:31:21.359Z,98937.08
2019-05-10T03:33:56.738Z,98941.95
2019-05-10T03:36:21.402Z,98955.80
2019-05-10T03:38:50.680Z,98952.16
2019-05-10T03:41:20.050Z,98955.82
2019-05-10T03:43:49.258Z,98953.28
2019-05-10T03:46:18.390Z,98963.69
2019-05-10T03:48:47.609Z,98964.87
2019-05-10T03:51:16.750Z,98969.03
2019-05-10T03:53:45.888Z,98973.98
2019-05-10T03:56:15.026Z,98976.84
2019-05-10T03:58:44.286Z,98976.75
2019-05-10T04:01:13.459Z,98976.41
2019-05-10T04:03:42.656Z,98979.37
2019-05-10T04:06:11.775Z,98978.52
2019-05-10T04:08:40.933Z,98980.65
2019-05-10T04:11:10.091Z,98984.44
2019-05-10T04:13:39.230Z,98985.50
2019-05-10T04:16:08.427Z,98989.28
2019-05-10T04:18:37.681Z,98991.20
2019-05-10T04:21:06.895Z,98998.53
2019-05-10T04:23:36.064Z,98999.97
2019-05-10T04:26:05.332Z,99002.78
2019-05-10T04:28:34.646Z,99004.44
2019-05-10T04:31:03.789Z,99010.09
2019-05-10T04:33:32.980Z,99016.70
2019-05-10T04:36:02.115Z,99019.08
2019-05-10T04:38:31.769Z,99018.46
2019-05-10T04:41:00.998Z,99019.18
2019-05-10T04:43:30.155Z,99022.60
2019-05-10T04:45:59.323Z,99015.84
2019-05-10T04:48:28.560Z,99017.94
2019-05-10T04:50:57.697Z,99014.62
2019-05-10T04:53:26.915Z,99021.11
2019-05-10T04:55:56.174Z,99022.39
2019-05-10T04:58:25.317Z,99021.31
2019-05-10T05:00:54.746Z,99031.37
2019-05-10T05:03:24.013Z,99027.95
2019-05-10T05:05:53.226Z,99024.39
2019-05-10T05:08:22.387Z,99030.25
2019-05-10T05:10:51.538Z,99038.08
2019-05-10T05:13:20.697Z,99033.37
2019-05-10T05:15:49.877Z,99035.33
2019-05-10T05:18:19.280Z,99042.95
2019-05-10T05:20:48.697Z,99043.59
2019-05-10T05:23:18.007Z,99045.70
2019-05-10T05:25:47.210Z,99051.84
2019-05-10T05:28:18.423Z,99056.23
2019-05-10T05:30:47.235Z,99051.78
2019-05-10T05:33:16.381Z,99055.51
2019-05-10T05:35:45.583Z,99043.69
2019-05-10T05:38:14.698Z,99052.45
2019-05-10T05:40:43.847Z,99051.75
2019-05-10T05:43:12.971Z,99052.61
2019-05-10T05:45:42.161Z,99056.58
2019-05-10T05:48:16.171Z,99063.98
2019-05-10T05:50:42.228Z,99059.78
2019-05-10T05:53:11.366Z,99074.59
2019-05-10T05:55:40.703Z,99068.70
2019-05-10T05:58:24.108Z,99073.05
2019-05-10T06:00:44.840Z,99082.89
2019-05-10T06:03:19.284Z,99082.30
2019-05-10T06:05:42.816Z,99083.42
2019-05-10T06:08:24.811Z,99083.42
2019-05-10T06:10:44.100Z,99076.54
2019-05-10T06:13:13.343Z,99081.14
2019-05-10T06:15:42.620Z,99086.28
2019-05-10T06:18:12.256Z,99085.78
2019-05-10T06:20:44.437Z,99085.78
2019-05-10T06:23:12.463Z,99097.70
2019-05-10T06:25:42.669Z,99097.70
2019-05-10T06:28:25.692Z,99093.75
2019-05-10T06:30:43.210Z,99097.50
2019-05-10T06:33:13.223Z,99097.50
2019-05-10T06:35:42.779Z,99098.51
2019-05-10T06:38:11.983Z,99105.48
2019-05-10T06:40:46.819Z,99106.57
2019-05-10T06:43:13.408Z,99107.66
2019-05-10T06:45:46.561Z,99114.42
2019-05-10T06:48:14.298Z,99117.60
2019-05-10T06:50:43.605Z,99114.31
2019-05-10T06:53:12.782Z,99105.52
2019-05-10T06:55:42.115Z,99106.27
2019-05-10T06:58:11.288Z,99103.44
2019-05-10T07:00:44.733Z,99106.28
2019-05-10T07:03:11.492Z,99105.48
2019-05-10T07:05:40.737Z,99111.70
2019-05-10T07:08:19.523Z,99111.75
2019-05-10T07:10:41.108Z,99106.03
2019-05-10T07:13:10.294Z,99105.78
2019-05-10T07:15:42.028Z,99110.58
2019-05-10T07:18:11.007Z,99109.00
2019-05-10T07:20:43.077Z,99118.91
2019-05-10T07:23:11.570Z,99119.98
2019-05-10T07:25:43.930Z,99119.11
2019-05-10T07:28:15.815Z,99129.33
2019-05-10T07:30:43.017Z,99129.05
2019-05-10T07:33:12.184Z,99132.42
2019-05-10T07:35:41.373Z,99142.53
2019-05-10T07:38:10.685Z,99131.36
2019-05-10T07:40:39.892Z,99136.58
2019-05-10T07:43:08.983Z,99130.02
2019-05-10T07:45:38.209Z,99126.41
2019-05-10T07:48:08.510Z,99127.23
2019-05-10T07:50:42.299Z,99130.20
2019-05-10T07:53:09.210Z,99125.73
2019-05-10T07:55:38.379Z,99123.27
2019-05-10T07:58:07.505Z,99127.23
2019-05-10T08:00:37.967Z,99127.20
2019-05-10T08:03:16.096Z,99129.50
2019-05-10T08:05:39.257Z,99134.00
2019-05-10T08:08:09.574Z,99129.50
2019-05-10T08:10:39.503Z,99149.06
2019-05-10T08:13:08.706Z,99146.70
2019-05-10T08:15:38.501Z,99145.06
2019-05-10T08:18:09.854Z,99149.12
2019-05-10T08:20:49.321Z,99152.06
2019-05-10T08:23:09.659Z,99150.02
2019-05-10T08:25:43.803Z,99157.49
2019-05-10T08:28:09.771Z,99150.19
2019-05-10T08:30:51.705Z,99154.23
2019-05-10T08:33:15.203Z,99171.58
2019-05-10T08:35:46.527Z,99174.44
2019-05-10T08:38:15.370Z,99170.94
2019-05-10T08:40:44.488Z,99177.03
2019-05-10T08:43:16.618Z,99180.55
2019-05-10T08:45:49.298Z,99178.67
2019-05-10T08:48:15.362Z,99178.28
2019-05-10T08:50:53.370Z,99182.95
2019-05-10T08:53:16.667Z,99190.55
2019-05-10T08:55:46.050Z,99172.06
2019-05-10T08:58:23.901Z,99182.89
2019-05-10T09:00:54.571Z,99180.56
2019-05-10T09:03:18.460Z,99176.27
2019-05-10T09:05:47.988Z,99177.65
2019-05-10T09:08:19.818Z,99175.94
2019-05-10T09:10:48.205Z,99172.80
2019-05-10T09:13:17.349Z,99179.05
2019-05-10T09:15:51.737Z,99180.17
2019-05-10T09:18:17.468Z,99182.16
2019-05-10T09:20:46.731Z,99172.27
2019-05-10T09:23:20.006Z,99165.42
2019-05-10T09:25:46.913Z,99161.23
2019-05-10T09:28:17.128Z,99167.08
2019-05-10T09:30:59.343Z,99158.57
2019-05-10T09:33:17.454Z,99163.13
2019-05-10T09:35:51.360Z,99164.34
2019-05-10T09:38:17.557Z,99166.87
2019-05-10T09:40:52.703Z,99174.31
2019-05-10T09:43:20.979Z,99175.10
2019-05-10T09:45:48.445Z,99177.63
2019-05-10T09:48:17.659Z,99176.10
2019-05-10T09:50:47.369Z,99191.34
2019-05-10T09:53:23.659Z,99208.63
2019-05-10T09:55:55.356Z,99218.78
2019-05-10T09:58:22.112Z,99221.47
2019-05-10T10:00:49.414Z,99238.86
2019-05-10T10:03:18.561Z,99236.77
2019-05-10T10:05:48.361Z,99226.08
2019-05-10T10:08:17.777Z,99234.55
2019-05-10T10:10:47.697Z,99221.81
2019-05-10T10:13:35.796Z,99225.75
2019-05-10T10:15:51.971Z,99226.78
2019-05-10T10:18:25.081Z,99226.91
2019-05-10T10:20:49.765Z,99218.30
2019-05-10T10:23:18.915Z,99218.73
2019-05-10T10:25:48.563Z,99222.87
2019-05-10T10:28:19.982Z,99220.41
2019-05-10T10:30:52.729Z,99217.33
2019-05-10T10:33:25.281Z,99212.89
2019-05-10T10:35:50.403Z,99225.70
2019-05-10T10:38:19.612Z,99216.48
2019-05-10T10:40:48.816Z,99217.83
2019-05-10T10:43:18.091Z,99219.42
2019-05-10T10:45:47.205Z,99224.95
2019-05-10T10:48:17.879Z,99226.84
2019-05-10T10:50:53.384Z,99218.16
2019-05-10T10:53:18.287Z,99220.61
2019-05-10T10:55:54.203Z,99207.80
2019-05-10T10:58:18.864Z,99215.41
2019-05-10T11:00:48.331Z,99210.06
2019-05-10T11:03:17.497Z,99212.02
2019-05-10T11:05:46.842Z,99209.98
2019-05-10T11:08:15.975Z,99200.20
2019-05-10T11:10:45.226Z,99195.20
2019-05-10T11:13:23.784Z,99194.45
2019-05-10T11:15:45.475Z,99194.13
2019-05-10T11:18:14.622Z,99186.34
2019-05-10T11:20:49.383Z,99178.85
2019-05-10T11:23:16.298Z,99180.13
2019-05-10T11:25:54.816Z,99179.50
2019-05-10T11:28:16.590Z,99176.69
2019-05-10T11:30:45.776Z,99174.14
2019-05-10T11:33:25.871Z,99169.93
2019-05-10T11:35:45.947Z,99169.98
2019-05-10T11:38:16.361Z,99178.06
2019-05-10T11:40:45.621Z,99172.92
2019-05-10T11:43:17.343Z,99173.49
2019-05-10T11:45:45.916Z,99171.13
2019-05-10T11:48:15.263Z,99173.16
2019-05-10T11:50:44.516Z,99167.00
2019-05-10T11:53:17.296Z,99172.05
2019-05-10T11:55:45.046Z,99171.94
2019-05-10T11:58:14.241Z,99184.72
2019-05-10T12:00:43.405Z,99192.93
2019-05-10T12:03:18.301Z,99181.68
2019-05-10T12:05:43.665Z,99184.48
2019-05-10T12:08:13.309Z,99216.59
2019-05-10T12:10:52.784Z,99248.44
2019-05-10T12:13:19.384Z,99245.81
2019-05-10T12:15:44.486Z,99251.56
2019-05-10T12:18:14.885Z,99228.88
2019-05-10T12:20:54.839Z,99213.63
2019-05-10T12:23:27.754Z,99219.23
2019-05-10T12:25:59.001Z,99210.58
2019-05-10T12:28:24.052Z,99214.22
2019-05-10T12:30:47.976Z,99210.57
2019-05-10T12:33:25.222Z,99214.60
2019-05-10T12:35:48.071Z,99210.84
2019-05-10T12:38:17.341Z,99207.70
2019-05-10T12:40:46.548Z,99209.56
2019-05-10T12:43:15.690Z,99203.42
2019-05-10T12:45:45.208Z,99203.14
2019-05-10T12:48:14.423Z,99203.11
2019-05-10T12:50:44.395Z,99212.70
2019-05-10T12:53:18.149Z,99206.77
2019-05-10T12:55:44.777Z,99206.52
2019-05-10T12:58:13.960Z,99199.59
2019-05-10T13:00:46.466Z,99197.48
2019-05-10T13:03:14.085Z,99199.06
2019-05-10T13:05:51.872Z,99208.14
2019-05-10T13:08:14.294Z,99211.16
2019-05-10T13:10:47.386Z,99208.88
2019-05-10T13:13:17.408Z,99206.25
2019-05-10T13:15:45.443Z,99215.13
2019-05-10T13:18:14.682Z,99217.27
2019-05-10T13:20:44.087Z,99217.12
2019-05-10T13:23:16.291Z,99218.77
2019-05-10T13:25:44.332Z,99225.95
2019-05-10T13:28:13.654Z,99224.94
2019-05-10T13:30:43.041Z,99222.92
2019-05-10T13:33:26.676Z,99216.27
2019-05-10T13:35:43.466Z,99216.72
2019-05-10T13:38:12.683Z,99210.99
2019-05-10T13:40:45.530Z,99209.18
2019-05-10T13:43:17.215Z,99205.64
2019-05-10T13:45:43.693Z,99205.05
2019-05-10T13:48:12.926Z,99213.27
2019-05-10T13:50:42.134Z,99207.84
2019-05-10T13:53:20.226Z,99209.51
2019-05-10T13:55:42.379Z,99210.13
2019-05-10T13:58:11.566Z,99210.83
2019-05-10T14:00:40.734Z,99209.75
2019-05-10T14:03:11.471Z,99218.78
2019-05-10T14:05:40.979Z,99218.09
2019-05-10T14:08:10.270Z,99207.59
2019-05-10T14:10:39.530Z,99209.04
2019-05-10T14:13:08.746Z,99206.52
2019-05-10T14:15:37.909Z,99201.79
2019-05-10T14:18:07.195Z,99204.14
2019-05-10T14:20:36.374Z,99204.50
2019-05-10T14:23:05.594Z,99198.91
2019-05-10T14:25:38.648Z,99203.65
2019-05-10T14:28:09.763Z,99202.52
2019-05-10T14:30:37.336Z,99204.27
2019-05-10T14:33:08.827Z,99201.77
2019-05-10T14:35:37.607Z,99193.90
2019-05-10T14:38:08.315Z,99193.27
2019-05-10T14:40:37.804Z,99195.08
2019-05-10T14:43:07.012Z,99201.02
2019-05-10T14:45:37.476Z,99197.76
2019-05-10T14:48:06.765Z,99198.89
2019-05-10T14:50:36.802Z,99200.73
2019-05-10T14:53:06.138Z,99192.84
2019-05-10T14:55:37.016Z,99196.27
2019-05-10T14:58:06.321Z,99195.63
2019-05-10T15:00:35.766Z,99200.30
2019-05-10T15:03:05.012Z,99203.28
2019-05-10T15:05:36.421Z,99206.65
2019-05-10T15:08:05.309Z,99209.16
2019-05-10T15:10:39.642Z,99211.48
2019-05-10T15:13:05.697Z,99207.14
2019-05-10T15:15:37.198Z,99210.94
2019-05-10T15:18:06.145Z,99210.55
2019-05-10T15:20:36.200Z,99212.14
2019-05-10T15:23:05.451Z,99212.14
2019-05-10T15:25:34.731Z,99204.07
2019-05-10T15:28:04.084Z,99199.45
2019-05-10T15:30:33.360Z,99204.44
2019-05-10T15:33:02.584Z,99200.25
2019-05-10T15:35:31.871Z,99194.06
2019-05-10T15:38:01.153Z,99193.38
2019-05-10T15:40:30.441Z,99195.98
2019-05-10T15:43:02.914Z,99190.02
2019-05-10T15:45:30.596Z,99181.53
2019-05-10T15:48:02.765Z,99169.48
2019-05-10T15:50:32.466Z,99179.10
2019-05-10T15:53:01.576Z,99180.68
2019-05-10T15:55:30.867Z,99181.22
2019-05-10T15:58:00.211Z,99182.86
2019-05-10T16:00:38.101Z,99185.94
2019-05-10T16:03:00.677Z,99197.77
2019-05-10T16:05:43.041Z,99198.34
2019-05-10T16:08:00.881Z,99199.22
2019-05-10T16:10:38.911Z,99194.24
2019-05-10T16:13:01.192Z,99193.39
2019-05-10T16:15:30.470Z,99201.13
2019-05-10T16:18:01.678Z,99200.78
2019-05-10T16:20:31.579Z,99203.00
2019-05-10T16:23:02.785Z,99197.58
2019-05-10T16:25:41.796Z,99197.09
2019-05-10T16:28:03.805Z,99182.01
2019-05-10T16:30:36.264Z,99193.61
2019-05-10T16:33:04.109Z,99184.80
2019-05-10T16:35:38.651Z,99189.19
2019-05-10T16:38:04.351Z,99199.16
2019-05-10T16:40:33.579Z,99200.14
2019-05-10T16:43:06.985Z,99204.09
2019-05-10T16:45:33.683Z,99199.00
2019-05-10T16:48:05.794Z,99200.34
2019-05-10T16:50:34.064Z,99196.75
2019-05-10T16:53:05.897Z,99198.58
2019-05-10T16:55:35.582Z,99196.94
2019-05-10T16:58:09.427Z,99192.51
2019-05-10T17:00:40.623Z,99196.75
2019-05-10T17:03:07.506Z,99184.55
2019-05-10T17:05:36.875Z,99178.94
2019-05-10T17:08:06.082Z,99179.53
2019-05-10T17:10:35.196Z,99181.78
2019-05-10T17:13:06.528Z,99186.28
2019-05-10T17:15:39.717Z,99187.41
2019-05-10T17:18:10.528Z,99188.98
2019-05-10T17:20:37.314Z,99188.86
2019-05-10T17:23:08.699Z,99191.83
2019-05-10T17:25:40.724Z,99186.29
2019-05-10T17:28:08.805Z,99187.25
2019-05-10T17:30:38.180Z,99191.23
2019-05-10T17:33:10.643Z,99169.68
2019-05-10T17:35:42.079Z,99173.10
2019-05-10T17:38:14.287Z,99172.33
2019-05-10T17:40:42.190Z,99173.16
2019-05-10T17:43:14.381Z,99178.17
2019-05-10T17:45:42.839Z,99180.38
2019-05-10T17:48:12.201Z,99181.52
2019-05-10T17:50:41.383Z,99182.42
2019-05-10T17:53:10.581Z,99187.20
2019-05-10T17:55:39.727Z,99182.31
2019-05-10T17:58:08.954Z,99184.48
2019-05-10T18:00:38.133Z,99179.08
2019-05-10T18:03:07.320Z,99173.81
2019-05-10T18:05:40.880Z,99166.22
2019-05-10T18:08:07.477Z,99169.16
2019-05-10T18:10:36.917Z,99170.59
2019-05-10T18:13:06.237Z,99172.06
2019-05-10T18:15:35.598Z,99164.83
2019-05-10T18:18:04.805Z,99165.72
2019-05-10T18:20:40.848Z,99163.31
2019-05-10T18:23:04.994Z,99168.14
2019-05-10T18:25:34.160Z,99170.52
2019-05-10T18:28:03.653Z,99161.50
2019-05-10T18:30:32.820Z,99171.03
2019-05-10T18:33:06.535Z,99173.41
2019-05-10T18:35:32.969Z,99175.48
2019-05-10T18:38:02.243Z,99170.42
2019-05-10T18:40:32.194Z,99171.97
2019-05-10T18:43:04.452Z,99183.31
2019-05-10T18:45:33.390Z,99188.67
2019-05-10T18:48:02.596Z,99187.23
2019-05-10T18:50:31.820Z,99188.05
2019-05-10T18:53:01.107Z,99200.84
2019-05-10T18:55:30.492Z,99204.07
2019-05-10T18:57:59.798Z,99203.59
2019-05-10T19:00:29.098Z,99202.30
2019-05-10T19:02:58.434Z,99202.66
2019-05-10T19:05:31.575Z,99213.26
2019-05-10T19:08:04.310Z,99213.73
2019-05-10T19:10:30.009Z,99212.37
2019-05-10T19:13:01.385Z,99210.58
2019-05-10T19:15:30.118Z,99219.38
2019-05-10T19:17:59.494Z,99223.09
2019-05-10T19:20:28.805Z,99220.84
2019-05-10T19:22:58.121Z,99221.16
2019-05-10T19:25:27.459Z,99221.16
2019-05-10T19:27:56.708Z,99221.66
2019-05-10T19:30:26.406Z,99215.25
2019-05-10T19:32:56.642Z,99226.83
2019-05-10T19:35:29.716Z,99228.38
2019-05-10T19:37:57.970Z,99238.59
2019-05-10T19:40:27.355Z,99229.75
2019-05-10T19:42:56.686Z,99232.80
2019-05-10T19:45:25.881Z,99234.81
2019-05-10T19:47:55.910Z,99237.04
2019-05-10T19:50:30.801Z,99238.02
2019-05-10T19:52:58.364Z,99241.56
2019-05-10T19:55:28.345Z,99230.88
2019-05-10T19:57:57.558Z,99234.75
2019-05-10T20:00:28.597Z,99237.95
2019-05-10T20:02:58.080Z,99239.41
2019-05-10T20:05:27.586Z,99241.66
2019-05-10T20:07:57.092Z,99250.58
2019-05-10T20:10:26.436Z,99251.38
2019-05-10T20:12:55.675Z,99246.55
2019-05-10T20:15:25.179Z,99244.95
2019-05-10T20:17:54.581Z,99245.53
2019-05-10T20:20:24.322Z,99239.50
2019-05-10T20:22:53.663Z,99242.72
2019-05-10T20:25:22.984Z,99237.73
2019-05-10T20:27:52.293Z,99239.48
2019-05-10T20:30:21.662Z,99232.88
2019-05-10T20:32:51.002Z,99233.45
2019-05-10T20:35:20.392Z,99241.73
2019-05-10T20:38:01.299Z,99244.73
2019-05-10T20:40:20.709Z,99235.53
2019-05-10T20:42:49.957Z,99239.34
2019-05-10T20:45:19.281Z,99237.33
2019-05-10T20:47:48.598Z,99224.17
2019-05-10T20:50:18.253Z,99222.16
2019-05-10T20:52:47.597Z,99221.56
2019-05-10T20:55:16.975Z,99224.48
2019-05-10T20:57:46.413Z,99229.10
2019-05-10T21:00:16.073Z,99224.06
2019-05-10T21:02:45.249Z,99229.86
2019-05-10T21:05:14.458Z,99229.78
2019-05-10T21:07:43.686Z,99230.50
2019-05-10T21:10:13.194Z,99233.22
2019-05-10T21:12:42.494Z,99224.55
2019-05-10T21:15:11.868Z,99217.48
2019-05-10T21:17:41.204Z,99211.48
2019-05-10T21:20:10.638Z,99213.64
2019-05-10T21:22:39.998Z,99210.03
2019-05-10T21:25:09.345Z,99207.36
2019-05-10T21:27:38.565Z,99210.61
2019-05-10T21:30:08.063Z,99210.69
2019-05-10T21:32:37.334Z,99208.77
2019-05-10T21:35:06.670Z,99210.02
2019-05-10T21:37:36.010Z,99208.29
2019-05-10T21:40:05.700Z,99196.48
2019-05-10T21:42:35.025Z,99190.95
2019-05-10T21:45:04.464Z,99187.24
2019-05-10T21:47:33.728Z,99183.06
2019-05-10T21:50:02.958Z,99182.67
2019-05-10T21:52:32.344Z,99183.27
2019-05-10T21:55:01.825Z,99173.31
2019-05-10T21:57:31.226Z,99171.03
2019-05-10T22:00:00.460Z,99175.17
2019-05-10T22:02:29.838Z,99171.27
2019-05-10T22:04:59.149Z,99167.48
2019-05-10T22:07:28.436Z,99170.80
2019-05-10T22:09:57.940Z,99157.78
2019-05-10T22:12:27.102Z,99152.48
2019-05-10T22:14:56.266Z,99149.69
2019-05-10T22:17:25.448Z,99144.96
2019-05-10T22:19:54.714Z,99126.85
2019-05-10T22:22:23.964Z,99127.59
2019-05-10T22:24:53.147Z,99135.77
2019-05-10T22:27:22.281Z,99143.02
2019-05-10T22:29:51.567Z,99147.80
2019-05-10T22:32:20.756Z,99158.56
2019-05-10T22:34:50.039Z,99153.79
2019-05-10T22:37:19.608Z,99150.20
2019-05-10T22:39:48.817Z,99147.48
2019-05-10T22:42:18.264Z,99147.94
2019-05-10T22:44:47.450Z,99152.02
2019-05-10T22:47:16.766Z,99151.20
2019-05-10T22:49:46.001Z,99150.57
2019-05-10T22:52:15.293Z,99148.36
2019-05-10T22:54:44.468Z,99154.66
2019-05-10T22:57:13.750Z,99152.78
2019-05-10T22:59:42.968Z,99148.41
2019-05-10T23:02:12.241Z,99151.31
2019-05-10T23:04:41.498Z,99159.23
2019-05-10T23:07:10.774Z,99149.25
2019-05-10T23:09:39.932Z,99144.64
2019-05-10T23:12:09.186Z,99147.80
2019-05-10T23:14:38.445Z,99145.52
2019-05-10T23:17:07.603Z,99141.47
2019-05-10T23:19:38.032Z,99126.88
2019-05-10T23:22:07.400Z,99120.56
2019-05-10T23:24:38.443Z,99102.25
2019-05-10T23:27:09.835Z,99109.11
2019-05-10T23:29:39.120Z,99109.14
2019-05-10T23:32:08.349Z,99105.23
2019-05-10T23:34:37.525Z,99104.97
2019-05-10T23:37:06.694Z,99101.07
2019-05-10T23:39:40.757Z,99099.27
2019-05-10T23:42:06.776Z,99089.58
2019-05-10T23:44:36.116Z,99078.90
2019-05-10T23:47:05.327Z,99074.16
2019-05-10T23:49:34.591Z,99069.31
2019-05-10T23:52:04.183Z,99063.92
2019-05-10T23:54:33.725Z,99064.27
2019-05-10T23:57:02.958Z,99057.06
2019-05-10T23:59:32.197Z,99056.78
